Union, Illinois
Current Conditions -  °F | °C
As of 10:35 PM on Monday 20 Oct 2014 (Local Time) from KDKB Reporting Station
Overcast Overcast  
Wind Chill: 47°   Ceiling: 6000
Heat Index: 50°   Visibility: 10mi
Dew Point: 40°   Wind: 6mph
Humidity: 70%   Direction: 360°N
Pressure: 30.02"   Gusts: NA
Location:  42.23°N, 88.54°W
Report Text: KDKB 210335Z AUTO 36005KT 10SM OVC060 10/05 A3002 RMK AO2 T00980045
Loading
Personal Weather Stations






























Interactive Weather Map
Tropical Storm Tracking
New forecast layout! Learn more

10-Day Weather Forecast

Advertisements
Track Severe Weather on mobile